createdAt,value
2019-04-11T00:01:34.161Z,101462.12
2019-04-11T00:03:54.719Z,101459.64
2019-04-11T00:06:25.651Z,101450.92
2019-04-11T00:08:58.498Z,101455.28
2019-04-11T00:11:30.202Z,101456.19
2019-04-11T00:14:01.034Z,101457.54
2019-04-11T00:16:32.926Z,101457.72
2019-04-11T00:19:05.161Z,101457.63
2019-04-11T00:21:35.746Z,101464.30
2019-04-11T00:24:07.069Z,101460.31
2019-04-11T00:26:38.186Z,101460.06
2019-04-11T00:29:10.172Z,101462.42
2019-04-11T00:31:41.107Z,101470.09
2019-04-11T00:34:12.950Z,101469.23
2019-04-11T00:36:44.814Z,101463.96
2019-04-11T00:39:15.674Z,101462.88
2019-04-11T00:41:46.359Z,101463.07
2019-04-11T00:44:16.944Z,101464.33
2019-04-11T00:46:48.767Z,101469.45
2019-04-11T00:49:19.496Z,101470.59
2019-04-11T00:51:50.080Z,101479.64
2019-04-11T00:54:20.975Z,101473.38
2019-04-11T00:56:52.673Z,101477.64
2019-04-11T00:59:23.233Z,101474.98
2019-04-11T01:01:53.832Z,101481.09
2019-04-11T01:04:25.485Z,101478.41
2019-04-11T01:06:56.457Z,101482.00
2019-04-11T01:09:27.040Z,101481.34
2019-04-11T01:11:59.100Z,101482.91
2019-04-11T01:14:29.965Z,101480.44
2019-04-11T01:17:01.619Z,101479.59
2019-04-11T01:19:33.007Z,101487.33
2019-04-11T01:22:03.711Z,101480.55
2019-04-11T01:24:35.605Z,101490.41
2019-04-11T01:27:07.698Z,101489.34
2019-04-11T01:29:38.288Z,101491.06
2019-04-11T01:32:10.661Z,101482.66
2019-04-11T01:34:41.186Z,101484.48
2019-04-11T01:37:13.389Z,101479.39
2019-04-11T01:40:01.347Z,101479.63
2019-04-11T01:42:33.437Z,101477.73
2019-04-11T01:45:05.496Z,101482.31
2019-04-11T01:47:55.424Z,101482.88
2019-04-11T01:50:27.650Z,101486.94
2019-04-11T01:52:58.468Z,101489.88
2019-04-11T01:55:29.983Z,101493.55
2019-04-11T01:58:00.682Z,101491.72
2019-04-11T02:00:48.735Z,101492.48
2019-04-11T02:03:21.258Z,101496.83
2019-04-11T02:05:51.859Z,101497.20
2019-04-11T02:08:23.025Z,101500.86
2019-04-11T02:10:53.619Z,101503.47
2019-04-11T02:13:24.376Z,101500.20
2019-04-11T02:15:56.820Z,101504.52
2019-04-11T02:18:27.643Z,101504.61
2019-04-11T02:20:58.310Z,101500.19
2019-04-11T02:23:47.623Z,101508.80
2019-04-11T02:26:20.926Z,101508.13
2019-04-11T02:28:51.504Z,101507.25
2019-04-11T02:31:23.099Z,101513.77
2019-04-11T02:33:55.246Z,101511.17
2019-04-11T02:36:27.321Z,101508.00
2019-04-11T02:39:02.179Z,101512.33
2019-04-11T02:41:32.013Z,101510.80
2019-04-11T02:44:03.624Z,101513.49
2019-04-11T02:46:42.531Z,101511.28
2019-04-11T02:49:08.110Z,101505.15
2019-04-11T02:51:39.269Z,101504.59
2019-04-11T02:54:11.408Z,101502.57
2019-04-11T02:56:43.564Z,101510.57
2019-04-11T02:59:15.479Z,101513.78
2019-04-11T03:01:46.519Z,101511.53
2019-04-11T03:04:20.055Z,101508.28
2019-04-11T03:06:51.986Z,101512.44
2019-04-11T03:09:24.149Z,101516.14
2019-04-11T03:11:56.657Z,101510.00
2019-04-11T03:14:29.323Z,101509.91
2019-04-11T03:17:11.972Z,101515.06
2019-04-11T03:19:46.842Z,101516.64
2019-04-11T03:22:05.619Z,101514.34
2019-04-11T03:24:38.390Z,101514.63
2019-04-11T03:27:11.096Z,101512.73
2019-04-11T03:29:43.113Z,101512.39
2019-04-11T03:33:02.226Z,101505.81
2019-04-11T03:37:47.765Z,101521.27
2019-04-11T03:40:11.848Z,101525.64
2019-04-11T03:42:41.667Z,101523.91
2019-04-11T03:45:20.716Z,101522.08
2019-04-11T03:47:40.977Z,101529.70
2019-04-11T03:50:08.580Z,101521.02
2019-04-11T03:52:36.575Z,101521.14
2019-04-11T03:55:08.590Z,101530.31
2019-04-11T03:57:41.565Z,101531.65
2019-04-11T04:00:14.756Z,101533.00
2019-04-11T04:02:46.787Z,101538.58
2019-04-11T04:05:18.140Z,101531.98
2019-04-11T04:07:49.432Z,101539.00
2019-04-11T04:10:23.414Z,101539.79
2019-04-11T04:12:56.553Z,101542.77
2019-04-11T04:15:41.030Z,101543.63
2019-04-11T04:18:05.859Z,101539.95
2019-04-11T04:20:42.387Z,101550.59
2019-04-11T04:23:16.632Z,101547.44
2019-04-11T04:25:49.256Z,101556.16
2019-04-11T04:28:21.469Z,101555.02
2019-04-11T04:30:53.857Z,101554.12
2019-04-11T04:33:26.486Z,101554.72
2019-04-11T04:35:58.026Z,101567.83
2019-04-11T04:38:29.585Z,101569.35
2019-04-11T04:41:16.311Z,101581.16
2019-04-11T04:43:34.063Z,101575.36
2019-04-11T04:46:25.176Z,101571.02
2019-04-11T04:48:38.910Z,101568.73
2019-04-11T04:51:11.986Z,101575.70
2019-04-11T04:53:43.111Z,101577.44
2019-04-11T04:56:15.381Z,101579.55
2019-04-11T04:58:46.693Z,101580.55
2019-04-11T05:01:19.369Z,101575.97
2019-04-11T05:03:51.042Z,101579.16
2019-04-11T05:06:21.761Z,101576.47
2019-04-11T05:08:53.922Z,101582.45
2019-04-11T05:11:26.089Z,101579.28
2019-04-11T05:13:58.594Z,101584.28
2019-04-11T05:16:30.815Z,101584.97
2019-04-11T05:19:01.876Z,101581.99
2019-04-11T05:21:33.267Z,101581.83
2019-04-11T05:24:04.110Z,101581.21
2019-04-11T05:26:35.476Z,101577.31
2019-04-11T05:29:06.435Z,101581.78
2019-04-11T05:31:37.037Z,101576.94
2019-04-11T05:34:07.827Z,101586.86
2019-04-11T05:36:40.788Z,101579.97
2019-04-11T05:39:11.470Z,101585.46
2019-04-11T05:41:46.649Z,101590.56
2019-04-11T05:44:16.738Z,101597.98
2019-04-11T05:46:54.946Z,101592.52
2019-04-11T05:49:29.080Z,101594.98
2019-04-11T05:52:02.096Z,101599.31
2019-04-11T05:54:49.032Z,101598.50
2019-04-11T05:57:23.850Z,101599.45
2019-04-11T05:59:54.341Z,101602.23
2019-04-11T06:02:33.726Z,101602.27
2019-04-11T06:05:09.440Z,101603.98
2019-04-11T06:07:46.195Z,101605.98
2019-04-11T06:10:31.760Z,101614.42
2019-04-11T06:13:07.933Z,101611.91
2019-04-11T06:15:42.817Z,101607.59
2019-04-11T06:18:25.944Z,101612.00
2019-04-11T06:20:51.505Z,101615.09
2019-04-11T06:23:29.919Z,101614.89
2019-04-11T06:26:14.690Z,101630.23
2019-04-11T06:28:45.291Z,101631.83
2019-04-11T06:31:26.493Z,101626.13
2019-04-11T06:34:05.040Z,101622.30
2019-04-11T06:36:46.878Z,101620.84
2019-04-11T06:39:27.276Z,101617.98
2019-04-11T06:42:08.860Z,101619.59
2019-04-11T06:44:58.465Z,101620.09
2019-04-11T06:47:40.921Z,101619.03
2019-04-11T06:50:13.903Z,101621.83
2019-04-11T06:52:46.179Z,101618.73
2019-04-11T06:55:22.443Z,101624.16
2019-04-11T06:57:54.731Z,101624.91
2019-04-11T07:00:25.877Z,101629.58
2019-04-11T07:03:01.385Z,101623.78
2019-04-11T07:05:35.027Z,101617.73
2019-04-11T07:08:07.690Z,101620.65
2019-04-11T07:10:40.159Z,101623.01
2019-04-11T07:13:12.859Z,101622.23
2019-04-11T07:15:46.341Z,101624.42
2019-04-11T07:18:35.711Z,101624.27
2019-04-11T07:21:08.509Z,101630.80
2019-04-11T07:23:57.633Z,101639.66
2019-04-11T07:26:39.423Z,101629.87
2019-04-11T07:29:21.538Z,101634.30
2019-04-11T07:32:04.737Z,101640.42
2019-04-11T07:34:54.419Z,101643.08
2019-04-11T07:37:30.241Z,101642.48
2019-04-11T07:40:15.997Z,101656.98
2019-04-11T07:43:11.532Z,101664.94
2019-04-11T07:45:43.302Z,101652.81
2019-04-11T07:48:19.354Z,101655.84
2019-04-11T07:50:53.612Z,101654.50
2019-04-11T07:53:24.781Z,101654.08
2019-04-11T07:55:55.498Z,101652.92
2019-04-11T07:58:30.915Z,101654.39
2019-04-11T08:01:10.400Z,101651.57
2019-04-11T08:03:42.636Z,101659.95
2019-04-11T08:06:20.824Z,101657.55
2019-04-11T08:09:09.715Z,101658.94
2019-04-11T08:11:42.347Z,101659.55
2019-04-11T08:14:18.572Z,101660.52
2019-04-11T08:16:59.952Z,101668.16
2019-04-11T08:19:49.089Z,101662.91
2019-04-11T08:22:21.380Z,101674.13
2019-04-11T08:24:53.631Z,101662.17
2019-04-11T08:27:35.770Z,101669.50
2019-04-11T08:30:08.696Z,101665.98
2019-04-11T08:32:46.946Z,101671.69
2019-04-11T08:35:19.837Z,101673.45
2019-04-11T08:38:02.721Z,101666.20
2019-04-11T08:40:38.092Z,101662.11
2019-04-11T08:43:19.336Z,101662.81
2019-04-11T08:45:51.593Z,101659.95
2019-04-11T08:48:22.890Z,101658.16
2019-04-11T08:50:55.083Z,101665.96
2019-04-11T08:53:40.679Z,101667.70
2019-04-11T08:56:12.453Z,101665.33
2019-04-11T08:59:13.353Z,101658.59
2019-04-11T09:01:44.269Z,101659.38
2019-04-11T09:04:36.444Z,101649.42
2019-04-11T09:07:10.306Z,101656.91
2019-04-11T09:09:48.912Z,101659.02
2019-04-11T09:12:20.560Z,101663.30
2019-04-11T09:14:54.753Z,101659.43
2019-04-11T09:17:28.138Z,101658.02
2019-04-11T09:20:07.347Z,101654.31
2019-04-11T09:22:41.483Z,101655.11
2019-04-11T09:25:15.208Z,101664.11
2019-04-11T09:27:57.513Z,101651.34
2019-04-11T09:30:43.039Z,101650.73
2019-04-11T09:33:31.719Z,101655.30
2019-04-11T09:36:19.966Z,101652.28
2019-04-11T09:39:07.656Z,101641.70
2019-04-11T09:41:56.603Z,101655.98
2019-04-11T09:44:28.882Z,101657.59
2019-04-11T09:47:04.102Z,101666.04
2019-04-11T09:49:39.598Z,101655.90
2019-04-11T09:52:12.257Z,101662.26
2019-04-11T09:55:02.846Z,101665.18
2019-04-11T09:57:36.565Z,101671.46
2019-04-11T10:00:22.930Z,101668.64
2019-04-11T10:02:58.729Z,101656.76
2019-04-11T10:05:46.766Z,101657.86
2019-04-11T10:08:22.879Z,101657.63
2019-04-11T10:11:10.178Z,101655.58
2019-04-11T10:13:44.933Z,101652.02
2019-04-11T10:16:24.161Z,101664.14
2019-04-11T10:19:13.846Z,101665.62
2019-04-11T10:21:59.398Z,101666.19
2019-04-11T10:24:40.958Z,101670.88
2019-04-11T10:27:14.232Z,101665.72
2019-04-11T10:30:03.105Z,101666.38
2019-04-11T10:32:43.437Z,101667.91
2019-04-11T10:35:32.552Z,101669.30
2019-04-11T10:38:05.309Z,101669.67
2019-04-11T10:40:56.675Z,101667.04
2019-04-11T10:43:29.211Z,101666.53
2019-04-11T10:46:01.496Z,101668.76
2019-04-11T10:48:39.309Z,101672.45
2019-04-11T10:51:14.926Z,101668.25
2019-04-11T10:53:47.045Z,101663.05
2019-04-11T10:56:37.277Z,101671.72
2019-04-11T10:59:09.079Z,101673.51
2019-04-11T11:02:00.270Z,101667.83
2019-04-11T11:04:36.747Z,101671.86
2019-04-11T11:07:11.491Z,101669.00
2019-04-11T11:09:44.406Z,101676.99
2019-04-11T11:12:19.237Z,101663.84
2019-04-11T11:14:52.398Z,101672.75
2019-04-11T11:17:54.916Z,101668.20
2019-04-11T11:20:21.545Z,101669.56
2019-04-11T11:22:57.655Z,101667.27
2019-04-11T11:25:48.535Z,101678.88
2019-04-11T11:28:18.582Z,101679.52
2019-04-11T11:30:52.050Z,101673.12
2019-04-11T11:33:25.235Z,101681.73
2019-04-11T11:36:02.678Z,101673.19
2019-04-11T11:38:33.681Z,101672.87
2019-04-11T11:41:22.699Z,101671.55
2019-04-11T11:43:57.086Z,101680.47
2019-04-11T11:46:46.541Z,101681.58
2019-04-11T11:49:36.276Z,101679.84
2019-04-11T11:51:58.038Z,101680.08
2019-04-11T11:54:29.310Z,101686.45
2019-04-11T11:57:02.406Z,101688.55
2019-04-11T11:59:34.771Z,101691.44
2019-04-11T12:02:08.481Z,101691.18
2019-04-11T12:04:44.679Z,101688.78
2019-04-11T12:07:21.021Z,101691.48
2019-04-11T12:10:11.158Z,101688.47
2019-04-11T12:12:44.186Z,101689.98
2019-04-11T12:15:32.978Z,101690.84
2019-04-11T12:18:09.567Z,101691.02
2019-04-11T12:20:57.429Z,101690.26
2019-04-11T12:23:29.559Z,101684.56
2019-04-11T12:26:01.731Z,101690.54
2019-04-11T12:28:40.160Z,101685.05
2019-04-11T12:31:11.534Z,101689.64
2019-04-11T12:34:00.094Z,101696.14
2019-04-11T12:36:32.576Z,101693.88
2019-04-11T12:39:14.129Z,101695.66
2019-04-11T12:41:58.675Z,101687.14
2019-04-11T12:44:31.033Z,101678.03
2019-04-11T12:47:03.330Z,101692.08
2019-04-11T12:49:35.542Z,101685.44
2019-04-11T12:52:26.302Z,101684.40
2019-04-11T12:55:04.219Z,101673.91
2019-04-11T12:57:54.414Z,101679.23
2019-04-11T13:00:35.875Z,101676.38
2019-04-11T13:03:24.655Z,101674.95
2019-04-11T13:05:56.866Z,101680.02
2019-04-11T13:08:29.102Z,101676.98
2019-04-11T13:11:00.924Z,101674.27
2019-04-11T13:13:33.475Z,101677.52
2019-04-11T13:16:12.344Z,101679.59
2019-04-11T13:18:59.259Z,101682.37
2019-04-11T13:21:31.690Z,101676.80
2019-04-11T13:24:10.263Z,101682.02
2019-04-11T13:26:58.782Z,101677.40
2019-04-11T13:29:31.020Z,101677.27
2019-04-11T13:32:21.686Z,101677.34
2019-04-11T13:34:53.926Z,101683.53
2019-04-11T13:37:35.271Z,101680.86
2019-04-11T13:40:20.276Z,101681.03
2019-04-11T13:43:08.448Z,101679.88
2019-04-11T13:45:40.911Z,101680.99
2019-04-11T13:48:29.562Z,101681.30
2019-04-11T13:51:01.839Z,101685.27
2019-04-11T13:53:43.428Z,101680.64
2019-04-11T13:56:14.206Z,101676.15
2019-04-11T13:58:46.664Z,101680.53
2019-04-11T14:01:17.647Z,101681.70
2019-04-11T14:04:03.010Z,101680.43
2019-04-11T14:06:33.729Z,101679.23
2019-04-11T14:09:18.274Z,101684.67
2019-04-11T14:11:50.323Z,101680.27
2019-04-11T14:14:22.830Z,101677.72
2019-04-11T14:16:55.143Z,101678.73
2019-04-11T14:19:33.116Z,101679.38
2019-04-11T14:22:07.025Z,101680.47
2019-04-11T14:24:43.940Z,101671.03
2019-04-11T14:27:20.129Z,101678.55
2019-04-11T14:29:52.442Z,101675.50
2019-04-11T14:32:24.512Z,101677.31
2019-04-11T14:35:04.095Z,101673.31
2019-04-11T14:37:38.488Z,101667.56
2019-04-11T14:40:19.064Z,101669.44
2019-04-11T14:43:05.242Z,101668.74
2019-04-11T14:45:45.142Z,101669.18
2019-04-11T14:48:17.466Z,101662.80
2019-04-11T14:50:50.618Z,101669.70
2019-04-11T14:53:41.840Z,101667.73
2019-04-11T14:56:14.213Z,101670.87
2019-04-11T14:59:06.134Z,101671.59
2019-04-11T15:01:36.610Z,101666.63
2019-04-11T15:04:13.611Z,101667.40
2019-04-11T15:06:54.224Z,101661.50
2019-04-11T15:09:41.655Z,101655.98
2019-04-11T15:12:17.650Z,101669.14
2019-04-11T15:15:04.909Z,101665.34
2019-04-11T15:17:37.167Z,101664.98
2019-04-11T15:20:13.043Z,101667.13
2019-04-11T15:22:51.445Z,101670.67
2019-04-11T15:25:30.367Z,101670.55
2019-04-11T15:28:12.617Z,101671.53
2019-04-11T15:30:49.704Z,101667.77
2019-04-11T15:33:22.694Z,101676.64
2019-04-11T15:35:57.768Z,101671.05
2019-04-11T15:38:46.915Z,101673.48
2019-04-11T15:41:17.715Z,101676.55
2019-04-11T15:43:49.930Z,101677.27
2019-04-11T15:46:28.050Z,101678.82
2019-04-11T15:49:03.127Z,101679.27
2019-04-11T15:51:35.724Z,101681.86
2019-04-11T15:54:16.818Z,101686.98
2019-04-11T15:56:49.042Z,101690.27
2019-04-11T15:59:34.822Z,101680.44
2019-04-11T16:02:23.637Z,101680.23
2019-04-11T16:05:02.756Z,101686.66
2019-04-11T16:07:51.290Z,101685.88
2019-04-11T16:10:23.520Z,101681.95
2019-04-11T16:13:07.765Z,101681.76
2019-04-11T16:15:42.498Z,101684.27
2019-04-11T16:18:28.177Z,101685.37
2019-04-11T16:21:00.510Z,101681.53
2019-04-11T16:23:47.838Z,101688.53
2019-04-11T16:26:28.758Z,101683.70
2019-04-11T16:29:16.024Z,101692.77
2019-04-11T16:31:47.281Z,101690.80
2019-04-11T16:34:19.689Z,101692.97
2019-04-11T16:36:51.588Z,101692.09
2019-04-11T16:39:30.028Z,101698.11
2019-04-11T16:42:02.362Z,101695.73
2019-04-11T16:44:55.223Z,101695.87
2019-04-11T16:47:42.907Z,101703.50
2019-04-11T16:50:13.398Z,101700.41
2019-04-11T16:52:43.987Z,101699.05
2019-04-11T16:55:14.576Z,101699.14
2019-04-11T16:57:45.184Z,101698.39
2019-04-11T17:00:20.573Z,101706.80
2019-04-11T17:02:54.668Z,101704.63
2019-04-11T17:05:24.037Z,101701.47
2019-04-11T17:08:01.481Z,101702.89
2019-04-11T17:10:50.685Z,101706.06
2019-04-11T17:13:23.769Z,101705.23
2019-04-11T17:15:55.064Z,101704.71
2019-04-11T17:18:25.696Z,101708.11
2019-04-11T17:20:56.984Z,101706.85
2019-04-11T17:23:27.594Z,101712.16
2019-04-11T17:25:58.188Z,101718.06
2019-04-11T17:28:28.794Z,101717.69
2019-04-11T17:30:59.370Z,101720.41
2019-04-11T17:33:30.261Z,101723.88
2019-04-11T17:36:02.878Z,101725.45
2019-04-11T17:38:36.924Z,101738.16
2019-04-11T17:41:06.284Z,101733.64
2019-04-11T17:43:36.887Z,101735.88
2019-04-11T17:46:07.597Z,101740.88
2019-04-11T17:48:38.372Z,101747.79
2019-04-11T17:51:09.650Z,101745.66
2019-04-11T17:53:40.418Z,101757.02
2019-04-11T17:56:11.072Z,101753.36
2019-04-11T17:58:41.836Z,101751.05
2019-04-11T18:01:12.517Z,101762.58
2019-04-11T18:03:43.818Z,101759.50
2019-04-11T18:06:17.206Z,101765.69
2019-04-11T18:08:51.328Z,101768.18
2019-04-11T18:11:26.076Z,101769.19
2019-04-11T18:13:56.401Z,101773.97
2019-04-11T18:16:28.869Z,101777.06
2019-04-11T18:19:00.051Z,101786.94
2019-04-11T18:21:31.000Z,101783.58
2019-04-11T18:24:01.853Z,101785.17
2019-04-11T18:26:34.865Z,101787.16
2019-04-11T18:29:06.009Z,101789.50
2019-04-11T18:31:37.088Z,101791.78
2019-04-11T18:34:08.337Z,101787.13
2019-04-11T18:36:39.341Z,101790.58
2019-04-11T18:39:10.660Z,101792.41
2019-04-11T18:41:41.718Z,101794.91
2019-04-11T18:44:13.086Z,101794.70
2019-04-11T18:46:45.749Z,101803.27
2019-04-11T18:49:16.819Z,101798.30
2019-04-11T18:51:47.549Z,101805.16
2019-04-11T18:54:19.825Z,101804.69
2019-04-11T18:56:50.730Z,101804.91
2019-04-11T18:59:22.822Z,101809.58
2019-04-11T19:01:54.327Z,101810.09
2019-04-11T19:04:32.175Z,101804.67
2019-04-11T19:07:04.740Z,101813.31
2019-04-11T19:09:37.736Z,101815.05
2019-04-11T19:12:09.030Z,101816.80
2019-04-11T19:14:39.997Z,101807.50
2019-04-11T19:17:10.770Z,101807.13
2019-04-11T19:19:41.722Z,101808.46
2019-04-11T19:22:12.862Z,101811.05
2019-04-11T19:24:43.534Z,101808.12
2019-04-11T19:27:16.590Z,101811.38
2019-04-11T19:29:48.574Z,101808.48
2019-04-11T19:32:21.461Z,101813.50
2019-04-11T19:34:52.366Z,101815.24
2019-04-11T19:37:23.262Z,101810.98
2019-04-11T19:39:55.694Z,101810.16
2019-04-11T19:42:28.557Z,101812.57
2019-04-11T19:45:02.760Z,101812.99
2019-04-11T19:47:33.122Z,101818.28
2019-04-11T19:50:06.224Z,101818.24
2019-04-11T19:52:45.109Z,101818.72
2019-04-11T19:55:20.481Z,101823.90
2019-04-11T19:57:53.036Z,101815.59
2019-04-11T20:00:24.201Z,101819.19
2019-04-11T20:02:55.124Z,101808.39
2019-04-11T20:05:25.769Z,101814.02
2019-04-11T20:07:58.721Z,101817.63
2019-04-11T20:10:31.598Z,101806.37
2019-04-11T20:13:04.710Z,101817.94
2019-04-11T20:15:37.372Z,101812.45
2019-04-11T20:18:08.975Z,101813.02
2019-04-11T20:20:39.706Z,101814.56
2019-04-11T20:23:11.502Z,101817.84
2019-04-11T20:25:45.716Z,101817.41
2019-04-11T20:28:19.788Z,101822.53
2019-04-11T20:30:50.892Z,101819.20
2019-04-11T20:33:27.215Z,101819.95
2019-04-11T20:35:57.469Z,101825.16
2019-04-11T20:38:28.654Z,101817.70
2019-04-11T20:41:00.396Z,101812.27
2019-04-11T20:43:31.230Z,101821.09
2019-04-11T20:46:02.457Z,101823.02
2019-04-11T20:48:35.146Z,101815.41
2019-04-11T20:51:05.672Z,101826.50
2019-04-11T20:53:37.474Z,101821.75
2019-04-11T20:56:09.912Z,101818.53
2019-04-11T20:58:40.668Z,101827.17
2019-04-11T21:01:12.529Z,101816.58
2019-04-11T21:03:43.408Z,101823.02
2019-04-11T21:06:14.239Z,101821.14
2019-04-11T21:08:44.916Z,101824.69
2019-04-11T21:11:18.753Z,101824.30
2019-04-11T21:13:51.100Z,101833.16
2019-04-11T21:16:21.726Z,101819.49
2019-04-11T21:18:54.463Z,101827.84
2019-04-11T21:21:25.161Z,101828.39
2019-04-11T21:23:57.950Z,101823.89
2019-04-11T21:26:29.463Z,101821.95
2019-04-11T21:29:00.260Z,101822.23
2019-04-11T21:31:31.748Z,101823.25
2019-04-11T21:34:02.992Z,101824.30
2019-04-11T21:36:33.633Z,101826.66
2019-04-11T21:39:06.790Z,101823.09
2019-04-11T21:41:39.541Z,101828.12
2019-04-11T21:44:11.293Z,101826.89
2019-04-11T21:46:42.153Z,101826.50
2019-04-11T21:49:12.784Z,101823.63
2019-04-11T21:51:43.321Z,101832.84
2019-04-11T21:54:15.066Z,101828.34
2019-04-11T21:56:49.252Z,101830.45
2019-04-11T21:59:20.325Z,101837.08
2019-04-11T22:01:54.113Z,101832.95
2019-04-11T22:04:26.891Z,101827.23
2019-04-11T22:06:56.361Z,101833.11
2019-04-11T22:09:26.915Z,101830.91
2019-04-11T22:11:57.466Z,101833.71
2019-04-11T22:14:28.002Z,101833.52
2019-04-11T22:16:58.548Z,101832.14
2019-04-11T22:19:29.083Z,101826.92
2019-04-11T22:21:59.623Z,101827.47
2019-04-11T22:24:30.161Z,101830.77
2019-04-11T22:27:00.688Z,101831.38
2019-04-11T22:29:31.225Z,101836.22
2019-04-11T22:32:01.856Z,101834.87
2019-04-11T22:34:42.827Z,101833.98
2019-04-11T22:37:13.434Z,101835.41
2019-04-11T22:39:43.985Z,101834.16
2019-04-11T22:42:14.675Z,101831.53
2019-04-11T22:44:45.199Z,101841.40
2019-04-11T22:47:15.759Z,101843.23
2019-04-11T22:49:46.519Z,101848.52
2019-04-11T22:52:17.429Z,101846.98
2019-04-11T22:54:47.994Z,101839.30
2019-04-11T22:57:18.547Z,101844.09
2019-04-11T22:59:49.092Z,101845.25
2019-04-11T23:02:24.243Z,101837.66
2019-04-11T23:04:55.008Z,101842.56
2019-04-11T23:07:25.541Z,101842.47
2019-04-11T23:09:56.079Z,101844.29
2019-04-11T23:12:27.574Z,101849.48
2019-04-11T23:14:58.215Z,101845.34
2019-04-11T23:17:28.771Z,101840.16
2019-04-11T23:19:59.396Z,101841.11
2019-04-11T23:22:29.930Z,101838.51
2019-04-11T23:27:29.679Z,101842.75
2019-04-11T23:30:00.253Z,101846.98
2019-04-11T23:32:30.807Z,101841.50
2019-04-11T23:35:01.392Z,101841.41
2019-04-11T23:37:33.795Z,101840.25
2019-04-11T23:40:05.741Z,101847.16
2019-04-11T23:42:36.311Z,101839.10
2019-04-11T23:45:06.866Z,101839.88
2019-04-11T23:47:37.441Z,101836.41
2019-04-11T23:50:08.149Z,101838.45
2019-04-11T23:52:38.727Z,101840.54
2019-04-11T23:55:09.413Z,101827.18
2019-04-11T23:57:39.975Z,101837.55
